Time;durP1;ratioP1;P1;durP2;ratioP2;P2;SDS_P1;SDS_P2;PMS_P1;PMS_P2;Temp;Humidity;BMP_temperature;BMP_pressure;BME280_temperature;BME280_humidity;BME280_pressure;Samples;Min_cycle;Max_cycle;Signal;HPM_P1;HPM_P2
2022/06/15 00:01:12;;;;;;;5.90;1.42;;;;;;;18.80;100.00;101321.19;5073078;28;20424;-85
2022/06/15 00:03:40;;;;;;;4.35;1.30;;;;;;;18.32;100.00;101294.97;5057763;28;20054;-85
2022/06/15 00:06:12;;;;;;;4.63;1.27;;;;;;;18.77;100.00;101308.13;5063156;28;20045;-85
2022/06/15 00:08:41;;;;;;;3.03;0.98;;;;;;;18.30;100.00;101280.97;5069904;28;20052;-85
2022/06/15 00:11:15;;;;;;;5.90;1.05;;;;;;;18.50;100.00;101271.78;5070658;28;20052;-85
2022/06/15 00:13:43;;;;;;;3.67;1.13;;;;;;;18.64;100.00;101310.69;5049981;28;20475;-85
2022/06/15 00:16:11;;;;;;;3.30;1.23;;;;;;;18.70;100.00;101288.25;5053598;28;20483;-85
2022/06/15 00:18:38;;;;;;;1.73;0.90;;;;;;;19.02;100.00;101291.53;5056239;28;20380;-85
2022/06/15 00:21:05;;;;;;;1.65;0.90;;;;;;;19.13;100.00;101298.78;5070058;28;20044;-85
2022/06/15 00:23:34;;;;;;;3.00;0.90;;;;;;;19.41;100.00;101313.78;5059787;28;20041;-85
2022/06/15 00:26:01;;;;;;;3.72;1.05;;;;;;;19.31;96.92;101297.59;5072261;28;20044;-85
2022/06/15 00:28:28;;;;;;;2.35;0.98;;;;;;;19.23;100.00;101305.22;5051220;28;20510;-85
2022/06/15 00:30:54;;;;;;;4.07;1.40;;;;;;;19.00;100.00;101308.47;5082223;28;20045;-85
2022/06/15 00:33:26;;;;;;;3.45;0.93;;;;;;;19.23;99.19;101314.97;5062945;28;20045;-85
2022/06/15 00:36:03;;;;;;;3.50;1.30;;;;;;;19.18;95.98;101315.28;5054492;28;20067;-85
2022/06/15 00:38:39;;;;;;;4.38;1.30;;;;;;;19.01;99.96;101323.47;5059291;28;20053;-84
2022/06/15 00:41:08;;;;;;;3.38;1.05;;;;;;;18.99;99.44;101320.06;5055560;28;20094;-85
2022/06/15 00:43:38;;;;;;;2.60;1.10;;;;;;;19.00;98.75;101330.59;5057034;28;20055;-84
2022/06/15 00:46:46;;;;;;;2.75;1.10;;;;;;;18.65;100.00;101330.97;5069739;28;20052;-85
2022/06/15 00:49:18;;;;;;;3.20;1.10;;;;;;;18.35;100.00;101289.47;5045570;28;20114;-83
2022/06/15 00:51:48;;;;;;;3.33;1.30;;;;;;;18.61;100.00;101302.94;5045616;28;20051;-84
2022/06/15 00:54:15;;;;;;;3.95;1.20;;;;;;;18.84;100.00;101335.13;5053528;28;20049;-84
2022/06/15 00:56:42;;;;;;;4.75;1.20;;;;;;;18.68;100.00;101298.09;5071871;28;20406;-84
2022/06/15 00:59:15;;;;;;;4.25;1.20;;;;;;;18.94;100.00;101341.56;5052311;28;20394;-84
2022/06/15 01:01:44;;;;;;;3.25;1.10;;;;;;;19.11;95.49;101322.78;5053765;28;20551;-84
2022/06/15 01:04:11;;;;;;;2.22;1.10;;;;;;;18.82;98.02;101308.69;5063069;28;20059;-84
2022/06/15 01:07:05;;;;;;;5.85;1.48;;;;;;;18.90;100.00;101327.66;5072030;28;20402;-84
2022/06/15 01:09:39;;;;;;;2.40;0.95;;;;;;;18.93;100.00;101316.84;5062018;28;20063;-84
2022/06/15 01:12:21;;;;;;;;;;;;;;;19.08;100.00;101328.28;5057437;28;20398;-84
2022/06/15 01:15:06;;;;;;;3.22;1.00;;;;;;;18.66;100.00;101334.47;5042722;28;19921;-84
2022/06/15 01:17:38;;;;;;;3.38;1.10;;;;;;;18.38;100.00;101288.47;5044334;28;20044;-84
2022/06/15 01:20:23;;;;;;;3.43;1.00;;;;;;;18.62;100.00;101325.84;5057601;28;20049;-83
2022/06/15 01:23:06;;;;;;;3.28;0.95;;;;;;;18.45;100.00;101324.25;5036623;28;20422;-84
2022/06/15 01:25:45;;;;;;;4.10;1.00;;;;;;;18.53;100.00;101323.78;5066878;28;20048;-84
2022/06/15 01:28:29;;;;;;;4.05;1.10;;;;;;;18.34;100.00;101332.00;5055203;28;20053;-84
2022/06/15 01:31:07;;;;;;;2.47;1.00;;;;;;;18.42;100.00;101321.78;5070104;28;20056;-84
2022/06/15 01:33:54;;;;;;;3.88;1.10;;;;;;;18.67;100.00;101329.06;5069663;28;20071;-84
2022/06/15 01:36:26;;;;;;;3.53;1.00;;;;;;;18.62;100.00;101317.88;5047114;28;20062;-84
2022/06/15 01:38:58;;;;;;;3.60;1.10;;;;;;;18.97;100.00;101322.81;5057023;28;20057;-84
2022/06/15 01:41:36;;;;;;;2.58;1.10;;;;;;;19.00;100.00;101332.38;5057981;28;20401;-84
2022/06/15 01:44:13;;;;;;;3.65;1.27;;;;;;;18.51;100.00;101318.56;5065478;28;20048;-84
2022/06/15 01:46:43;;;;;;;3.92;1.20;;;;;;;18.17;100.00;101264.13;5058535;28;20049;-84
2022/06/15 01:49:25;;;;;;;4.22;1.10;;;;;;;18.40;100.00;101339.59;5055752;28;20690;-84
2022/06/15 01:51:53;;;;;;;4.28;1.30;;;;;;;18.36;100.00;101301.81;5070512;28;20048;-84
2022/06/15 01:54:30;;;;;;;1.98;0.90;;;;;;;18.33;100.00;101341.75;5064800;28;20055;-84
2022/06/15 01:57:00;;;;;;;2.55;1.15;;;;;;;18.10;100.00;101329.03;5067480;28;20048;-84
2022/06/15 01:59:40;;;;;;;5.05;1.27;;;;;;;18.42;100.00;101334.19;5059493;28;20072;-84
2022/06/15 02:02:12;;;;;;;2.85;1.25;;;;;;;17.91;100.00;101321.31;5068421;28;20045;-83
2022/06/15 02:05:12;;;;;;;2.92;1.10;;;;;;;18.28;100.00;101348.28;5055033;28;20406;-83
2022/06/15 02:07:51;;;;;;;2.55;0.90;;;;;;;17.99;100.00;101351.72;5055617;28;20041;-83
2022/06/15 02:10:22;;;;;;;2.10;1.00;;;;;;;18.23;100.00;101350.34;5050675;28;20373;-84
2022/06/15 02:12:49;;;;;;;4.22;1.13;;;;;;;18.12;100.00;101351.00;5063995;28;20468;-84
2022/06/15 02:15:19;;;;;;;5.30;1.30;;;;;;;17.80;100.00;101333.38;5048912;28;20044;-84
2022/06/15 02:17:48;;;;;;;3.60;1.05;;;;;;;17.83;100.00;101329.69;5050008;28;20045;-83
2022/06/15 02:20:21;;;;;;;4.45;1.20;;;;;;;17.86;100.00;101337.47;5050659;28;20051;-83
2022/06/15 02:22:50;;;;;;;2.95;1.25;;;;;;;18.08;100.00;101337.06;5049698;28;20047;-83
2022/06/15 02:25:20;;;;;;;3.10;0.98;;;;;;;17.92;100.00;101318.59;5051726;28;20414;-82
2022/06/15 02:27:50;;;;;;;1.98;1.00;;;;;;;17.58;100.00;101272.00;5050139;28;20049;-82
2022/06/15 02:30:21;;;;;;;4.18;1.27;;;;;;;17.79;100.00;101314.91;5049916;28;20052;-82
2022/06/15 02:32:50;;;;;;;2.00;0.93;;;;;;;18.02;100.00;101337.44;5043004;28;20104;-81
2022/06/15 02:35:18;;;;;;;5.55;1.40;;;;;;;17.91;100.00;101316.03;5040232;28;20049;-82
2022/06/15 02:37:47;;;;;;;4.65;1.10;;;;;;;18.34;100.00;101327.56;5050170;28;20045;-82
2022/06/15 02:40:17;;;;;;;3.08;1.10;;;;;;;17.98;100.00;101320.84;5050039;28;20045;-82
2022/06/15 02:42:45;;;;;;;2.45;0.95;;;;;;;18.05;100.00;101333.75;5049286;28;20045;-82
2022/06/15 02:45:18;;;;;;;3.70;1.17;;;;;;;17.72;100.00;101325.00;5050173;28;20063;-81
2022/06/15 02:47:46;;;;;;;1.98;0.90;;;;;;;17.80;100.00;101314.81;5049648;28;20056;-82
2022/06/15 02:50:18;;;;;;;3.03;1.00;;;;;;;17.86;100.00;101315.44;5052704;28;20049;-83
2022/06/15 02:53:13;;;;;;;6.43;1.40;;;;;;;17.91;100.00;101314.22;5053381;28;20045;-82
2022/06/15 02:55:42;;;;;;;3.67;1.30;;;;;;;17.50;100.00;101296.28;5042632;28;20049;-82
2022/06/15 02:58:24;;;;;;;2.97;1.05;;;;;;;17.51;100.00;101308.59;5054259;28;20127;-82
2022/06/15 03:00:51;;;;;;;6.55;1.30;;;;;;;17.14;100.00;101265.69;5055284;28;20045;-83
2022/06/15 03:03:18;;;;;;;6.97;1.40;;;;;;;17.43;100.00;101287.00;5053457;28;20567;-82
2022/06/15 03:05:47;;;;;;;2.45;1.02;;;;;;;17.50;100.00;101285.69;5055518;28;20483;-83
2022/06/15 03:08:15;;;;;;;2.85;0.90;;;;;;;17.46;100.00;101300.91;5054393;28;20506;-83
2022/06/15 03:10:41;;;;;;;5.63;1.40;;;;;;;17.04;100.00;101260.06;5053871;28;20063;-83
2022/06/15 03:13:08;;;;;;;4.15;1.17;;;;;;;17.27;100.00;101297.59;5053941;28;20487;-83
2022/06/15 03:15:35;;;;;;;4.53;1.30;;;;;;;16.63;100.00;101281.69;5053647;28;20541;-83
2022/06/15 03:18:03;;;;;;;3.83;1.40;;;;;;;16.98;100.00;101286.00;5054413;28;20147;-83
2022/06/15 03:20:30;;;;;;;4.05;1.40;;;;;;;16.73;100.00;101278.53;5053113;28;20688;-83
2022/06/15 03:22:56;;;;;;;4.53;1.25;;;;;;;16.65;100.00;101278.97;5052860;28;20140;-83
2022/06/15 03:25:24;;;;;;;4.50;1.27;;;;;;;16.49;100.00;101253.38;5050482;28;20057;-83
2022/06/15 03:27:51;;;;;;;4.47;1.45;;;;;;;16.81;100.00;101266.59;5053827;28;20079;-83
2022/06/15 03:30:18;;;;;;;3.58;1.10;;;;;;;17.06;100.00;101275.84;5054768;28;20052;-83
2022/06/15 03:32:45;;;;;;;5.60;1.45;;;;;;;17.39;100.00;101273.09;5050363;28;20064;-83
2022/06/15 03:35:12;;;;;;;5.05;1.20;;;;;;;17.43;100.00;101265.81;5053446;28;20402;-83
2022/06/15 03:37:39;;;;;;;2.45;1.02;;;;;;;17.52;100.00;101280.31;5052909;28;20041;-83
2022/06/15 03:40:08;;;;;;;3.92;1.27;;;;;;;17.22;100.00;101257.31;5053302;28;20041;-83
2022/06/15 03:42:36;;;;;;;2.58;1.15;;;;;;;17.31;100.00;101279.75;5053011;28;20084;-83
2022/06/15 03:45:03;;;;;;;5.70;1.40;;;;;;;17.19;100.00;101279.53;5053301;28;20052;-83
2022/06/15 03:47:30;;;;;;;4.60;1.27;;;;;;;17.10;100.00;101253.56;5053362;28;20491;-83
2022/06/15 03:49:56;;;;;;;3.53;1.20;;;;;;;16.96;100.00;101227.06;5053289;28;20053;-83
2022/06/15 03:52:25;;;;;;;7.00;1.60;;;;;;;16.91;100.00;101285.50;5053483;28;20049;-83
2022/06/15 03:54:52;;;;;;;3.25;1.10;;;;;;;16.58;100.00;101246.72;5053136;28;20143;-83
2022/06/15 03:57:20;;;;;;;2.90;1.10;;;;;;;16.81;100.00;101286.91;5054155;28;20060;-83
2022/06/15 03:59:48;;;;;;;6.13;1.80;;;;;;;17.14;100.00;101292.16;5066821;28;20052;-83
2022/06/15 04:02:14;;;;;;;4.63;1.30;;;;;;;17.13;100.00;101282.50;5052000;28;20056;-84
2022/06/15 04:04:41;;;;;;;3.08;1.00;;;;;;;17.52;100.00;101275.88;5038680;28;20093;-83
2022/06/15 04:08:34;;;;;;;3.05;1.20;;;;;;;17.53;100.00;101280.22;5052875;28;20415;-83
2022/06/15 04:09:56;;;;;;;3.97;1.10;;;;;;;16.84;100.00;101273.56;5053099;28;20048;-83
2022/06/15 04:12:23;;;;;;;4.53;1.20;;;;;;;16.93;100.00;101275.69;5050338;28;20079;-83
2022/06/15 04:14:50;;;;;;;2.22;1.10;;;;;;;17.03;100.00;101273.38;5049335;28;20459;-83
2022/06/15 04:17:20;;;;;;;4.13;1.38;;;;;;;16.95;100.00;101268.53;5052724;28;20133;-83
2022/06/15 04:20:31;;;;;;;4.50;1.23;;;;;;;16.98;100.00;101276.28;5053157;28;20070;-84
2022/06/15 04:22:33;;;;;;;4.22;1.15;;;;;;;17.03;100.00;101284.84;5052792;28;20045;-84
2022/06/15 04:25:01;;;;;;;3.47;1.30;;;;;;;16.58;100.00;101259.09;5053886;28;20407;-83
2022/06/15 04:27:30;;;;;;;6.30;1.30;;;;;;;16.58;100.00;101278.44;5052403;28;20045;-83
2022/06/15 04:29:56;;;;;;;6.38;1.90;;;;;;;15.82;100.00;101244.56;5053529;28;20045;-83
2022/06/15 04:32:23;;;;;;;6.10;2.17;;;;;;;15.91;100.00;101237.97;5049083;28;20067;-83
2022/06/15 04:34:50;;;;;;;5.00;1.60;;;;;;;16.19;100.00;101277.00;5040975;28;20045;-83
2022/06/15 04:37:16;;;;;;;3.88;1.40;;;;;;;16.26;100.00;101291.59;5053128;28;20068;-83
2022/06/15 04:39:43;;;;;;;7.93;1.58;;;;;;;16.36;100.00;101248.81;5052984;28;20049;-84
2022/06/15 04:42:10;;;;;;;7.05;2.05;;;;;;;16.54;100.00;101297.19;5051599;28;20041;-84
2022/06/15 04:44:37;;;;;;;4.65;1.40;;;;;;;16.21;100.00;101243.41;5053566;28;20051;-84
2022/06/15 04:47:04;;;;;;;3.53;1.30;;;;;;;16.44;100.00;101252.75;5051701;28;20490;-84
2022/06/15 04:49:31;;;;;;;7.47;2.03;;;;;;;16.10;100.00;101280.97;5052379;28;20412;-81
2022/06/15 04:51:59;;;;;;;5.13;1.55;;;;;;;15.91;100.00;101240.59;5051720;28;20059;-85
2022/06/15 04:54:26;;;;;;;4.47;1.85;;;;;;;16.43;100.00;101293.34;5052288;28;20063;-84
2022/06/15 04:56:52;;;;;;;3.70;1.35;;;;;;;16.42;100.00;101302.19;5052581;28;20077;-84
2022/06/15 04:59:19;;;;;;;4.97;1.70;;;;;;;16.06;100.00;101246.88;5052014;28;20511;-83
2022/06/15 05:01:46;;;;;;;4.85;1.52;;;;;;;16.44;100.00;101289.75;5039586;28;20048;-85
2022/06/15 05:04:13;;;;;;;4.82;1.60;;;;;;;16.59;100.00;101287.22;5045629;28;20049;-84
2022/06/15 05:06:41;;;;;;;4.63;1.40;;;;;;;16.16;100.00;101263.94;5050987;28;20049;-83
2022/06/15 05:09:12;;;;;;;5.35;1.75;;;;;;;16.42;100.00;101306.66;5051478;28;20048;-83
2022/06/15 05:11:38;;;;;;;4.50;1.60;;;;;;;16.36;100.00;101304.31;5051110;28;20052;-83
2022/06/15 05:14:06;;;;;;;4.25;1.45;;;;;;;16.57;100.00;101305.81;5052129;28;20063;-83
2022/06/15 05:16:33;;;;;;;4.53;1.55;;;;;;;16.92;100.00;101304.88;5051198;28;20388;-83
2022/06/15 05:19:01;;;;;;;6.05;1.30;;;;;;;17.24;100.00;101295.13;5047579;28;20092;-83
2022/06/15 05:21:28;;;;;;;5.80;1.60;;;;;;;17.16;100.00;101279.69;5045013;28;20128;-84
2022/06/15 05:23:55;;;;;;;2.80;1.15;;;;;;;17.31;100.00;101299.13;5049939;28;20041;-84
2022/06/15 05:26:25;;;;;;;3.25;1.20;;;;;;;17.40;100.00;101272.13;5049067;28;20063;-84
2022/06/15 05:28:52;;;;;;;3.20;1.20;;;;;;;17.50;100.00;101303.38;5050900;28;20053;-84
2022/06/15 05:31:21;;;;;;;3.67;1.42;;;;;;;17.57;100.00;101308.22;5051103;28;20049;-84
2022/06/15 05:33:53;;;;;;;4.78;1.40;;;;;;;17.52;100.00;101282.97;5036018;28;20050;-84
2022/06/15 05:36:30;;;;;;;4.75;1.45;;;;;;;17.58;100.00;101304.66;5038639;28;20088;-83
2022/06/15 05:38:57;;;;;;;7.38;1.65;;;;;;;17.26;100.00;101282.66;5050920;28;20053;-83
2022/06/15 05:41:25;;;;;;;3.28;1.20;;;;;;;17.35;100.00;101300.69;5052283;28;20041;-84
2022/06/15 05:46:43;;;;;;;3.80;1.30;;;;;;;16.95;100.00;101288.84;5051991;28;20052;-86
2022/06/15 05:49:10;;;;;;;4.00;1.23;;;;;;;17.19;100.00;101258.38;5044827;28;20049;-84
2022/06/15 05:51:37;;;;;;;5.97;1.77;;;;;;;17.10;100.00;101273.88;5067463;28;20052;-84
2022/06/15 05:54:05;;;;;;;4.13;1.48;;;;;;;17.07;100.00;101289.00;5050701;28;20056;-82
2022/06/15 05:56:33;;;;;;;5.82;1.60;;;;;;;16.63;100.00;101251.78;5051126;28;20060;-84
2022/06/15 05:59:00;;;;;;;3.88;1.35;;;;;;;16.80;100.00;101272.84;5049171;28;20057;-85
2022/06/15 06:01:30;;;;;;;4.95;1.60;;;;;;;17.24;100.00;101274.78;5049148;28;20139;-85
2022/06/15 06:03:58;;;;;;;4.53;1.52;;;;;;;17.29;100.00;101290.44;5047947;28;20495;-84
2022/06/15 06:06:26;;;;;;;3.70;1.33;;;;;;;17.29;100.00;101286.94;5050097;28;20483;-84
2022/06/15 06:08:53;;;;;;;3.95;1.25;;;;;;;16.77;100.00;101280.94;5050459;28;20388;-83
2022/06/15 06:11:21;;;;;;;6.20;1.40;;;;;;;17.00;100.00;101287.63;5050110;28;20056;-83
2022/06/15 06:13:48;;;;;;;3.50;1.30;;;;;;;17.17;100.00;101294.63;5043561;28;20048;-82
2022/06/15 06:16:20;;;;;;;4.35;1.35;;;;;;;17.53;100.00;101280.22;5050237;28;20095;-82
2022/06/15 06:18:47;;;;;;;6.20;1.45;;;;;;;17.62;100.00;101287.63;5050252;28;20221;-82
2022/06/15 06:21:14;;;;;;;4.15;1.27;;;;;;;17.44;100.00;101278.09;5049950;28;20041;-82
2022/06/15 06:23:41;;;;;;;6.03;1.58;;;;;;;17.54;100.00;101257.25;5051480;28;20178;-82
2022/06/15 06:26:18;;;;;;;6.93;1.58;;;;;;;17.82;100.00;101293.56;5050836;28;20053;-82
2022/06/15 06:28:45;;;;;;;4.70;1.58;;;;;;;17.57;100.00;101283.56;5050416;28;20051;-82
2022/06/15 06:31:12;;;;;;;6.90;1.55;;;;;;;17.86;100.00;101287.16;5050658;28;20124;-82
2022/06/15 06:33:39;;;;;;;6.07;2.00;;;;;;;17.57;100.00;101286.19;5050402;28;20045;-82
2022/06/15 06:36:15;;;;;;;8.93;3.25;;;;;;;17.30;100.00;101291.28;5051003;28;20060;-82
2022/06/15 06:38:42;;;;;;;9.38;4.05;;;;;;;17.64;100.00;101295.50;5050052;28;20077;-82
2022/06/15 06:41:10;;;;;;;10.45;3.85;;;;;;;17.51;100.00;101286.53;5067168;28;20380;-82
2022/06/15 06:43:36;;;;;;;9.98;3.58;;;;;;;17.57;100.00;101284.41;5050290;28;20049;-82
2022/06/15 06:46:04;;;;;;;13.27;5.05;;;;;;;17.28;100.00;101286.06;5050319;28;20075;-81
2022/06/15 06:48:31;;;;;;;10.63;3.17;;;;;;;17.24;100.00;101281.91;5049600;28;20077;-82
2022/06/15 06:50:58;;;;;;;9.00;3.33;;;;;;;17.52;100.00;101283.81;5049813;28;20064;-82
2022/06/15 06:53:25;;;;;;;7.75;2.40;;;;;;;17.90;100.00;101283.41;5046944;28;20049;-83
2022/06/15 06:55:51;;;;;;;6.47;2.20;;;;;;;18.00;100.00;101281.88;5051679;28;20045;-83
2022/06/15 06:58:18;;;;;;;7.22;1.73;;;;;;;18.05;100.00;101281.59;5050332;28;20471;-82
2022/06/15 07:00:46;;;;;;;6.05;1.95;;;;;;;17.71;100.00;101286.25;5049963;28;20049;-82
2022/06/15 07:03:12;;;;;;;7.78;1.88;;;;;;;17.53;100.00;101284.66;5049781;28;20049;-82
2022/06/15 07:05:39;;;;;;;5.03;1.60;;;;;;;17.68;100.00;101283.75;5049916;28;20656;-82
2022/06/15 07:08:12;;;;;;;5.68;1.60;;;;;;;17.55;100.00;101291.59;5049795;28;20060;-83
2022/06/15 07:10:40;;;;;;;5.85;1.60;;;;;;;17.32;100.00;101286.78;5050386;28;20071;-83
2022/06/15 07:13:08;;;;;;;8.30;2.17;;;;;;;16.87;100.00;101290.13;5049306;28;20049;-82
2022/06/15 07:15:36;;;;;;;4.28;1.40;;;;;;;17.79;100.00;101289.28;5049771;28;20055;-82
2022/06/15 07:18:03;;;;;;;9.00;2.35;;;;;;;17.06;100.00;101297.03;5050384;28;20067;-83
2022/06/15 07:20:30;;;;;;;6.35;1.83;;;;;;;17.46;100.00;101298.25;5046027;28;20069;-82
2022/06/15 07:22:58;;;;;;;6.45;1.75;;;;;;;17.80;100.00;101295.44;5042410;28;20064;-82
2022/06/15 07:25:28;;;;;;;3.85;1.38;;;;;;;17.54;100.00;101289.00;5049793;28;20053;-82
2022/06/15 07:27:54;;;;;;;3.75;1.35;;;;;;;18.13;100.00;101302.34;5050857;28;20041;-83
2022/06/15 07:30:24;;;;;;;4.78;1.30;;;;;;;18.44;100.00;101300.47;5050956;28;20052;-82
2022/06/15 07:32:52;;;;;;;6.22;1.58;;;;;;;18.54;100.00;101297.16;5048633;28;20037;-82
2022/06/15 07:35:25;;;;;;;3.90;1.30;;;;;;;18.79;100.00;101303.56;5044828;28;20065;-82
2022/06/15 07:37:53;;;;;;;6.85;1.55;;;;;;;18.46;100.00;101322.44;5053463;28;20045;-81
2022/06/15 07:40:39;;;;;;;6.68;1.55;;;;;;;18.42;100.00;101307.69;5053973;28;20053;-82
2022/06/15 07:43:10;;;;;;;7.50;1.80;;;;;;;17.95;100.00;101304.28;5052919;28;20057;-83
2022/06/15 07:45:37;;;;;;;5.47;1.95;;;;;;;17.93;100.00;101311.47;5052541;28;20059;-82
2022/06/15 07:50:50;;;;;;;6.38;2.10;;;;;;;18.27;100.00;101315.59;5047454;28;20053;-82
2022/06/15 07:53:17;;;;;;;8.60;1.60;;;;;;;17.96;100.00;101312.16;5051421;28;20049;-82
2022/06/15 07:55:46;;;;;;;6.53;2.08;;;;;;;17.74;100.00;101317.84;5053134;28;20414;-82
2022/06/15 07:58:14;;;;;;;7.65;1.77;;;;;;;18.60;100.00;101304.72;5052853;28;20052;-82
2022/06/15 08:00:44;;;;;;;5.72;1.80;;;;;;;18.01;100.00;101302.13;5054628;28;20045;-82
2022/06/15 08:03:11;;;;;;;10.38;1.95;;;;;;;18.10;100.00;101313.13;5052243;28;20044;-83
2022/06/15 08:05:42;;;;;;;5.80;2.03;;;;;;;18.73;100.00;101318.09;5051300;28;20060;-83
2022/06/15 08:08:19;;;;;;;5.53;1.55;;;;;;;18.93;100.00;101310.69;5049887;28;20056;-83
2022/06/15 08:10:46;;;;;;;4.63;1.60;;;;;;;18.74;100.00;101284.44;5052797;28;20052;-83
2022/06/15 08:13:14;;;;;;;6.35;1.52;;;;;;;19.13;100.00;101307.59;5045964;28;20067;-82
2022/06/15 08:15:42;;;;;;;5.72;1.70;;;;;;;19.11;100.00;101295.41;5052133;28;20049;-82
2022/06/15 08:18:13;;;;;;;6.68;1.90;;;;;;;19.23;100.00;101297.25;5052897;28;20546;-82
2022/06/15 08:20:51;;;;;;;6.75;1.42;;;;;;;19.69;100.00;101288.88;5052893;28;20467;-83
2022/06/15 08:23:22;;;;;;;4.72;1.60;;;;;;;19.62;100.00;101300.00;5064498;28;20051;-82
2022/06/15 08:25:55;;;;;;;4.55;1.25;;;;;;;19.94;100.00;101291.69;5047485;28;20127;-82
2022/06/15 08:28:26;;;;;;;5.22;1.40;;;;;;;20.01;100.00;101279.69;5051789;28;20072;-82
2022/06/15 08:30:54;;;;;;;3.15;1.20;;;;;;;20.06;100.00;101274.91;5051927;28;20486;-83
2022/06/15 08:33:22;;;;;;;4.18;1.40;;;;;;;19.71;100.00;101288.78;5053517;28;20051;-83
2022/06/15 08:35:50;;;;;;;5.65;1.27;;;;;;;19.84;100.00;101267.59;5053248;28;20053;-83
2022/06/15 08:38:21;;;;;;;6.65;1.50;;;;;;;19.92;100.00;101297.16;5051757;28;20045;-83
2022/06/15 08:40:51;;;;;;;3.13;1.20;;;;;;;20.30;100.00;101278.53;5051827;28;20411;-83
2022/06/15 08:43:37;;;;;;;3.45;1.10;;;;;;;21.15;100.00;101292.97;5051761;28;20041;-83
2022/06/15 08:46:23;;;;;;;3.65;1.10;;;;;;;21.90;100.00;101295.34;5048086;28;20127;-85
2022/06/15 08:49:37;;;;;;;3.50;1.20;;;;;;;21.99;97.77;101283.09;5059354;28;20600;-84
2022/06/15 08:52:13;;;;;;;6.28;1.55;;;;;;;22.17;95.24;101297.69;5025450;28;20519;-85
2022/06/15 08:54:48;;;;;;;3.85;1.10;;;;;;;21.87;93.84;101260.06;5051380;28;20080;-85
2022/06/15 08:57:19;;;;;;;8.02;1.48;;;;;;;22.61;88.43;101255.16;5047370;28;20505;-85
2022/06/15 08:59:51;;;;;;;5.85;1.20;;;;;;;22.85;87.96;101288.84;5048400;28;20055;-85
2022/06/15 09:02:21;;;;;;;3.65;0.90;;;;;;;23.03;82.48;101295.34;5047549;28;20497;-86
2022/06/15 09:05:06;;;;;;;3.08;1.00;;;;;;;22.77;83.36;101289.47;5047174;28;20521;-85
2022/06/15 09:07:48;;;;;;;1.85;0.82;;;;;;;22.10;86.76;101293.81;5051578;28;20041;-85
2022/06/15 09:10:21;;;;;;;5.20;1.20;;;;;;;22.54;83.97;101272.59;5051069;28;20495;-85
2022/06/15 09:13:07;;;;;;;3.65;0.90;;;;;;;22.96;81.99;101285.31;5049077;28;20067;-86
2022/06/15 09:15:41;;;;;;;2.38;0.90;;;;;;;23.23;78.98;101292.91;5048301;28;20049;-85
2022/06/15 09:18:23;;;;;;;5.40;1.58;;;;;;;22.88;77.35;101283.28;5052160;28;20057;-85
2022/06/15 09:20:56;;;;;;;3.83;1.10;;;;;;;22.92;81.53;101284.69;5046366;28;20044;-85
2022/06/15 09:23:29;;;;;;;2.83;0.90;;;;;;;23.11;79.64;101247.53;5046981;28;20073;-85
2022/06/15 09:26:05;;;;;;;2.42;1.00;;;;;;;23.06;79.17;101244.41;5045726;28;20055;-85
2022/06/15 09:28:32;;;;;;;3.45;1.27;;;;;;;23.11;79.75;101278.75;5054547;28;20053;-83
2022/06/15 09:31:05;;;;;;;3.97;1.13;;;;;;;22.21;79.28;101265.44;5049894;28;20048;-85
2022/06/15 09:33:51;;;;;;;2.55;1.00;;;;;;;22.22;82.59;101267.97;5050500;28;20041;-85
2022/06/15 09:36:22;;;;;;;2.83;0.98;;;;;;;22.39;80.77;101225.84;5043040;28;20048;-85
2022/06/15 09:38:49;;;;;;;3.38;1.13;;;;;;;22.29;79.79;101249.72;5051497;28;20135;-85
2022/06/15 09:41:23;;;;;;;4.32;1.10;;;;;;;22.77;78.23;101257.44;5051674;28;20479;-85
2022/06/15 09:44:22;;;;;;;4.25;1.00;;;;;;;22.41;77.81;101255.91;5051082;28;20052;-86
2022/06/15 09:47:18;;;;;;;5.15;1.10;;;;;;;22.36;78.85;101261.59;5049959;28;20048;-86
2022/06/15 09:50:00;;;;;;;6.55;1.80;;;;;;;21.14;85.69;101243.31;5050881;28;20053;-85
2022/06/15 09:53:04;;;;;;;3.83;1.17;;;;;;;21.48;83.18;101260.34;5049897;28;20044;-85
2022/06/15 09:55:48;;;;;;;;;;;;;;;21.97;83.30;101263.72;5047403;28;20415;-85
2022/06/15 09:58:43;;;;;;;8.05;1.58;;;;;;;22.35;83.74;101242.06;5050517;28;19931;-84
2022/06/15 10:01:11;;;;;;;5.32;1.25;;;;;;;23.13;84.87;101258.09;5050538;28;20049;-84
2022/06/15 10:03:46;;;;;;;3.20;1.10;;;;;;;22.61;81.58;101220.47;5050441;28;20040;-85
2022/06/15 10:06:23;;;;;;;5.75;1.58;;;;;;;22.47;82.75;101256.25;5046585;28;20414;-84
2022/06/15 10:08:51;;;;;;;6.50;1.70;;;;;;;22.13;84.09;101234.03;5051525;28;20047;-83
2022/06/15 10:11:36;;;;;;;6.97;1.85;;;;;;;21.93;83.48;101219.59;5050359;28;20095;-85
2022/06/15 10:14:26;;;;;;;5.68;1.58;;;;;;;22.75;80.67;101251.34;5045659;28;20049;-84
2022/06/15 10:17:04;;;;;;;9.13;2.20;;;;;;;21.76;82.06;101252.88;5050352;28;20076;-85
2022/06/15 10:19:34;;;;;;;5.55;1.65;;;;;;;21.71;84.60;101249.72;5050528;28;20052;-85
2022/06/15 10:22:05;;;;;;;9.38;2.22;;;;;;;22.03;84.06;101233.03;5049821;28;20049;-84
2022/06/15 10:24:36;;;;;;;6.22;1.95;;;;;;;22.20;79.02;101248.56;5038272;28;20061;-85
2022/06/15 10:27:15;;;;;;;7.80;1.70;;;;;;;22.83;82.54;101250.75;5050859;28;20445;-85
2022/06/15 10:29:44;;;;;;;7.93;1.75;;;;;;;22.28;82.55;101240.03;5050212;28;20497;-85
2022/06/15 10:32:11;;;;;;;8.70;1.70;;;;;;;23.07;79.64;101256.78;5047876;28;20040;-85
2022/06/15 10:34:45;;;;;;;8.52;1.67;;;;;;;23.17;78.98;101251.50;5038820;28;20073;-85
2022/06/15 10:37:47;;;;;;;6.25;1.77;;;;;;;22.71;79.02;101250.75;5050426;28;20068;-84
2022/06/15 10:40:31;;;;;;;8.13;2.40;;;;;;;21.31;84.49;101260.72;5051635;28;20064;-85
2022/06/15 10:43:12;;;;;;;7.65;2.33;;;;;;;21.34;90.33;101260.50;5049116;28;20045;-86
2022/06/15 10:46:04;;;;;;;9.63;2.67;;;;;;;20.20;96.78;101245.59;5050333;28;20399;-84
2022/06/15 10:48:35;;;;;;;10.48;2.33;;;;;;;21.16;94.67;101236.94;5040783;28;20083;-84
2022/06/15 10:51:06;;;;;;;10.77;2.35;;;;;;;21.68;91.13;101247.31;5046137;28;20476;-85
2022/06/15 10:53:52;;;;;;;11.80;3.30;;;;;;;21.73;89.34;101242.47;5049497;28;20639;-85
2022/06/15 11:02:30;;;;;;;6.80;2.28;;;;;;;23.08;80.08;101225.56;5039582;28;20041;-85
2022/06/15 11:05:13;;;;;;;8.82;2.25;;;;;;;22.56;75.75;101231.50;5048991;28;20462;-85
2022/06/15 11:07:46;;;;;;;11.60;2.67;;;;;;;21.90;82.08;101236.69;5048653;28;20119;-84
2022/06/15 11:10:20;;;;;;;8.75;2.33;;;;;;;22.47;79.33;101226.03;5037256;28;20060;-85
2022/06/15 11:13:06;;;;;;;11.23;2.85;;;;;;;22.89;81.33;101237.72;5053443;28;20471;-85
2022/06/15 11:18:32;;;;;;;13.30;2.30;;;;;;;24.46;75.75;101223.59;5055025;28;20657;-84
2022/06/15 11:21:23;;;;;;;5.10;1.35;;;;;;;24.05;67.82;101218.22;5047286;28;20124;-85
2022/06/15 11:24:02;;;;;;;6.78;1.63;;;;;;;24.78;66.99;101212.69;5050551;28;20372;-85
2022/06/15 11:26:57;;;;;;;7.88;2.17;;;;;;;24.13;71.14;101206.00;5053359;28;20045;-85
2022/06/15 11:29:42;;;;;;;5.35;1.42;;;;;;;25.29;64.77;101226.03;5040907;28;20049;-85
2022/06/15 11:32:30;;;;;;;8.20;1.67;;;;;;;24.16;65.34;101216.47;5053853;28;20079;-85
2022/06/15 11:35:21;;;;;;;12.50;2.30;;;;;;;23.85;68.93;101208.41;5043957;28;20045;-85
2022/06/15 11:37:59;;;;;;;11.02;2.45;;;;;;;23.21;71.56;101222.72;5053968;28;20049;-85
2022/06/15 11:40:36;;;;;;;6.28;1.83;;;;;;;23.42;72.83;101212.06;5054615;28;20525;-85
2022/06/15 11:43:13;;;;;;;9.35;2.03;;;;;;;23.21;69.37;101230.75;5054149;28;20045;-85
2022/06/15 11:45:55;;;;;;;5.75;1.60;;;;;;;22.81;70.95;101224.19;5052775;28;20052;-85
2022/06/15 11:48:38;;;;;;;9.68;2.00;;;;;;;22.45;74.46;101228.00;5052628;28;20053;-85
2022/06/15 11:51:14;;;;;;;7.22;1.50;;;;;;;23.10;71.92;101243.16;5054257;28;20057;-85
2022/06/15 11:54:02;;;;;;;7.63;2.00;;;;;;;22.23;73.19;101234.16;5051859;28;20051;-85
2022/06/15 11:56:37;;;;;;;6.55;2.00;;;;;;;22.21;75.00;101244.97;5039903;28;20063;-85
2022/06/15 11:59:40;;;;;;;6.78;1.73;;;;;;;21.99;73.91;101209.31;5053424;28;20056;-85